sensor_id;sensor_type;location;lat;lon;timestamp;temperature;humidity
28530;DHT22;15737;49.760;6.632;2023-08-01T00:00:35;16.50;99.90
28530;DHT22;15737;49.760;6.632;2023-08-01T00:03:01;16.50;99.90
28530;DHT22;15737;49.760;6.632;2023-08-01T00:05:26;16.50;99.90
28530;DHT22;15737;49.760;6.632;2023-08-01T00:07:52;16.50;99.90
28530;DHT22;15737;49.760;6.632;2023-08-01T00:10:18;16.50;99.90
28530;DHT22;15737;49.760;6.632;2023-08-01T00:12:43;16.50;99.90
28530;DHT22;15737;49.760;6.632;2023-08-01T00:15:09;16.50;99.90
28530;DHT22;15737;49.760;6.632;2023-08-01T00:17:35;16.50;99.90
28530;DHT22;15737;49.760;6.632;2023-08-01T00:20:04;16.50;99.90
28530;DHT22;15737;49.760;6.632;2023-08-01T00:22:30;16.50;99.90
28530;DHT22;15737;49.760;6.632;2023-08-01T00:24:55;16.50;99.90
28530;DHT22;15737;49.760;6.632;2023-08-01T00:27:30;16.50;99.90
28530;DHT22;15737;49.760;6.632;2023-08-01T00:29:57;16.50;99.90
28530;DHT22;15737;49.760;6.632;2023-08-01T00:32:23;16.50;99.90
28530;DHT22;15737;49.760;6.632;2023-08-01T00:34:50;16.50;99.90
28530;DHT22;15737;49.760;6.632;2023-08-01T00:37:16;16.50;99.90
28530;DHT22;15737;49.760;6.632;2023-08-01T00:39:41;16.50;99.90
28530;DHT22;15737;49.760;6.632;2023-08-01T00:42:07;16.50;99.90
28530;DHT22;15737;49.760;6.632;2023-08-01T00:44:32;16.50;99.90
28530;DHT22;15737;49.760;6.632;2023-08-01T00:46:58;16.50;99.90
28530;DHT22;15737;49.760;6.632;2023-08-01T00:49:24;16.50;99.90
28530;DHT22;15737;49.760;6.632;2023-08-01T00:51:49;16.50;99.90
28530;DHT22;15737;49.760;6.632;2023-08-01T00:54:27;16.50;99.90
28530;DHT22;15737;49.760;6.632;2023-08-01T00:56:54;16.50;99.90
28530;DHT22;15737;49.760;6.632;2023-08-01T00:59:19;16.50;99.90
28530;DHT22;15737;49.760;6.632;2023-08-01T01:01:45;16.50;99.90
28530;DHT22;15737;49.760;6.632;2023-08-01T01:04:11;16.50;99.90
28530;DHT22;15737;49.760;6.632;2023-08-01T01:06:51;16.50;99.90
28530;DHT22;15737;49.760;6.632;2023-08-01T01:09:22;16.50;99.90
28530;DHT22;15737;49.760;6.632;2023-08-01T01:11:48;16.50;99.90
28530;DHT22;15737;49.760;6.632;2023-08-01T01:14:14;16.50;99.90
28530;DHT22;15737;49.760;6.632;2023-08-01T01:16:39;16.50;99.90
28530;DHT22;15737;49.760;6.632;2023-08-01T01:19:07;16.50;99.90
28530;DHT22;15737;49.760;6.632;2023-08-01T01:21:35;16.50;99.90
28530;DHT22;15737;49.760;6.632;2023-08-01T01:24:02;16.60;99.90
28530;DHT22;15737;49.760;6.632;2023-08-01T01:26:28;16.50;99.90
28530;DHT22;15737;49.760;6.632;2023-08-01T01:28:54;16.50;99.90
28530;DHT22;15737;49.760;6.632;2023-08-01T01:31:20;16.50;99.90
28530;DHT22;15737;49.760;6.632;2023-08-01T01:33:46;16.60;99.90
28530;DHT22;15737;49.760;6.632;2023-08-01T01:36:19;16.60;99.90
28530;DHT22;15737;49.760;6.632;2023-08-01T01:38:44;16.60;99.90
28530;DHT22;15737;49.760;6.632;2023-08-01T01:41:10;16.60;99.90
28530;DHT22;15737;49.760;6.632;2023-08-01T01:43:36;16.60;99.90
28530;DHT22;15737;49.760;6.632;2023-08-01T01:46:03;16.60;99.90
28530;DHT22;15737;49.760;6.632;2023-08-01T01:48:28;16.60;99.90
28530;DHT22;15737;49.760;6.632;2023-08-01T01:50:54;16.60;99.90
28530;DHT22;15737;49.760;6.632;2023-08-01T01:53:19;16.70;99.90
28530;DHT22;15737;49.760;6.632;2023-08-01T01:55:45;16.70;99.90
28530;DHT22;15737;49.760;6.632;2023-08-01T01:58:10;16.70;99.90
28530;DHT22;15737;49.760;6.632;2023-08-01T02:00:36;16.70;99.90
28530;DHT22;15737;49.760;6.632;2023-08-01T02:03:02;16.70;99.90
28530;DHT22;15737;49.760;6.632;2023-08-01T02:05:29;16.70;99.90
28530;DHT22;15737;49.760;6.632;2023-08-01T02:07:54;16.70;99.90
28530;DHT22;15737;49.760;6.632;2023-08-01T02:10:20;16.70;99.90
28530;DHT22;15737;49.760;6.632;2023-08-01T02:12:45;16.70;99.90
28530;DHT22;15737;49.760;6.632;2023-08-01T02:15:11;16.70;99.90
28530;DHT22;15737;49.760;6.632;2023-08-01T02:17:36;16.70;99.90
28530;DHT22;15737;49.760;6.632;2023-08-01T02:20:02;16.70;99.90
28530;DHT22;15737;49.760;6.632;2023-08-01T02:22:30;16.60;99.90
28530;DHT22;15737;49.760;6.632;2023-08-01T02:24:56;16.60;99.90
28530;DHT22;15737;49.760;6.632;2023-08-01T02:27:21;16.60;99.90
28530;DHT22;15737;49.760;6.632;2023-08-01T02:29:47;16.60;99.90
28530;DHT22;15737;49.760;6.632;2023-08-01T02:32:12;16.60;99.90
28530;DHT22;15737;49.760;6.632;2023-08-01T02:34:38;16.60;99.90
28530;DHT22;15737;49.760;6.632;2023-08-01T02:37:03;16.60;99.90
28530;DHT22;15737;49.760;6.632;2023-08-01T02:39:29;16.60;99.90
28530;DHT22;15737;49.760;6.632;2023-08-01T02:42:05;16.60;99.90
28530;DHT22;15737;49.760;6.632;2023-08-01T02:44:30;16.60;99.90
28530;DHT22;15737;49.760;6.632;2023-08-01T02:46:56;16.60;99.90
28530;DHT22;15737;49.760;6.632;2023-08-01T02:49:21;16.60;99.90
28530;DHT22;15737;49.760;6.632;2023-08-01T02:51:47;16.60;99.90
28530;DHT22;15737;49.760;6.632;2023-08-01T02:54:12;16.60;99.90
28530;DHT22;15737;49.760;6.632;2023-08-01T02:56:38;16.60;99.90
28530;DHT22;15737;49.760;6.632;2023-08-01T02:59:07;16.60;99.90
28530;DHT22;15737;49.760;6.632;2023-08-01T03:01:37;16.60;99.90
28530;DHT22;15737;49.760;6.632;2023-08-01T03:04:03;16.50;99.90
28530;DHT22;15737;49.760;6.632;2023-08-01T03:06:29;16.50;99.90
28530;DHT22;15737;49.760;6.632;2023-08-01T03:08:55;16.50;99.90
28530;DHT22;15737;49.760;6.632;2023-08-01T03:11:21;16.50;99.90
28530;DHT22;15737;49.760;6.632;2023-08-01T03:13:46;16.50;99.90
28530;DHT22;15737;49.760;6.632;2023-08-01T03:16:11;16.50;99.90
28530;DHT22;15737;49.760;6.632;2023-08-01T03:18:37;16.50;99.90
28530;DHT22;15737;49.760;6.632;2023-08-01T03:21:02;16.50;99.90
28530;DHT22;15737;49.760;6.632;2023-08-01T03:23:29;16.50;99.90
28530;DHT22;15737;49.760;6.632;2023-08-01T03:25:55;16.50;99.90
28530;DHT22;15737;49.760;6.632;2023-08-01T03:28:20;16.50;99.90
28530;DHT22;15737;49.760;6.632;2023-08-01T03:30:46;16.40;99.90
28530;DHT22;15737;49.760;6.632;2023-08-01T03:33:15;16.40;99.90
28530;DHT22;15737;49.760;6.632;2023-08-01T03:35:47;16.40;99.90
28530;DHT22;15737;49.760;6.632;2023-08-01T03:38:12;16.40;99.90
28530;DHT22;15737;49.760;6.632;2023-08-01T03:40:38;16.40;99.90
28530;DHT22;15737;49.760;6.632;2023-08-01T03:43:03;16.40;99.90
28530;DHT22;15737;49.760;6.632;2023-08-01T03:45:30;16.40;99.90
28530;DHT22;15737;49.760;6.632;2023-08-01T03:47:55;16.40;99.90
28530;DHT22;15737;49.760;6.632;2023-08-01T03:52:50;16.40;99.90
28530;DHT22;15737;49.760;6.632;2023-08-01T03:55:16;16.30;99.90
28530;DHT22;15737;49.760;6.632;2023-08-01T03:57:42;16.40;99.90
28530;DHT22;15737;49.760;6.632;2023-08-01T04:00:08;16.30;99.90
28530;DHT22;15737;49.760;6.632;2023-08-01T04:02:44;16.40;99.90
28530;DHT22;15737;49.760;6.632;2023-08-01T04:05:10;16.40;99.90
28530;DHT22;15737;49.760;6.632;2023-08-01T04:07:36;16.40;99.90
28530;DHT22;15737;49.760;6.632;2023-08-01T04:10:02;16.30;99.90
28530;DHT22;15737;49.760;6.632;2023-08-01T04:12:30;16.40;99.90
28530;DHT22;15737;49.760;6.632;2023-08-01T04:14:56;16.30;99.90
28530;DHT22;15737;49.760;6.632;2023-08-01T04:17:21;16.30;99.90
28530;DHT22;15737;49.760;6.632;2023-08-01T04:19:47;16.30;99.90
28530;DHT22;15737;49.760;6.632;2023-08-01T04:22:13;16.30;99.90
28530;DHT22;15737;49.760;6.632;2023-08-01T04:24:39;16.30;99.90
28530;DHT22;15737;49.760;6.632;2023-08-01T04:27:04;16.30;99.90
28530;DHT22;15737;49.760;6.632;2023-08-01T04:29:40;16.30;99.90
28530;DHT22;15737;49.760;6.632;2023-08-01T04:32:06;16.30;99.90
28530;DHT22;15737;49.760;6.632;2023-08-01T04:34:32;16.30;99.90
28530;DHT22;15737;49.760;6.632;2023-08-01T04:36:57;16.30;99.90
28530;DHT22;15737;49.760;6.632;2023-08-01T04:39:23;16.30;99.90
28530;DHT22;15737;49.760;6.632;2023-08-01T04:41:48;16.30;99.90
28530;DHT22;15737;49.760;6.632;2023-08-01T04:44:15;16.30;99.90
28530;DHT22;15737;49.760;6.632;2023-08-01T04:46:40;16.40;99.90
28530;DHT22;15737;49.760;6.632;2023-08-01T04:49:06;16.40;99.90
28530;DHT22;15737;49.760;6.632;2023-08-01T04:51:31;16.40;99.90
28530;DHT22;15737;49.760;6.632;2023-08-01T04:53:57;16.40;99.90
28530;DHT22;15737;49.760;6.632;2023-08-01T04:56:37;16.40;99.90
28530;DHT22;15737;49.760;6.632;2023-08-01T04:59:02;16.40;99.90
28530;DHT22;15737;49.760;6.632;2023-08-01T05:01:28;16.40;99.90
28530;DHT22;15737;49.760;6.632;2023-08-01T05:03:59;16.40;99.90
28530;DHT22;15737;49.760;6.632;2023-08-01T05:06:25;16.40;99.90
28530;DHT22;15737;49.760;6.632;2023-08-01T05:08:53;16.40;99.90
28530;DHT22;15737;49.760;6.632;2023-08-01T05:14:02;16.40;99.90
28530;DHT22;15737;49.760;6.632;2023-08-01T05:16:28;16.40;99.90
28530;DHT22;15737;49.760;6.632;2023-08-01T05:18:53;16.50;99.90
28530;DHT22;15737;49.760;6.632;2023-08-01T05:21:19;16.50;99.90
28530;DHT22;15737;49.760;6.632;2023-08-01T05:23:44;16.50;99.90
28530;DHT22;15737;49.760;6.632;2023-08-01T05:26:10;16.60;99.90
28530;DHT22;15737;49.760;6.632;2023-08-01T05:28:35;16.50;99.90
28530;DHT22;15737;49.760;6.632;2023-08-01T05:31:01;16.60;99.90
28530;DHT22;15737;49.760;6.632;2023-08-01T05:33:26;16.60;99.90
28530;DHT22;15737;49.760;6.632;2023-08-01T05:35:52;16.60;99.90
28530;DHT22;15737;49.760;6.632;2023-08-01T05:40:52;16.40;99.90
28530;DHT22;15737;49.760;6.632;2023-08-01T05:43:17;16.30;99.90
28530;DHT22;15737;49.760;6.632;2023-08-01T05:45:43;16.30;99.90
28530;DHT22;15737;49.760;6.632;2023-08-01T05:48:08;16.20;99.90
28530;DHT22;15737;49.760;6.632;2023-08-01T05:50:34;16.10;99.90
28530;DHT22;15737;49.760;6.632;2023-08-01T05:52:59;16.00;99.90
28530;DHT22;15737;49.760;6.632;2023-08-01T05:55:25;15.90;99.90
28530;DHT22;15737;49.760;6.632;2023-08-01T05:57:50;15.70;99.90
28530;DHT22;15737;49.760;6.632;2023-08-01T06:00:18;15.70;99.90
28530;DHT22;15737;49.760;6.632;2023-08-01T06:02:45;15.70;99.90
28530;DHT22;15737;49.760;6.632;2023-08-01T06:07:46;15.80;99.90
28530;DHT22;15737;49.760;6.632;2023-08-01T06:10:12;15.80;99.90
28530;DHT22;15737;49.760;6.632;2023-08-01T06:12:37;15.80;99.90
28530;DHT22;15737;49.760;6.632;2023-08-01T06:15:03;15.80;99.90
28530;DHT22;15737;49.760;6.632;2023-08-01T06:17:29;15.80;99.90
28530;DHT22;15737;49.760;6.632;2023-08-01T06:19:54;16.10;99.90
28530;DHT22;15737;49.760;6.632;2023-08-01T06:22:20;16.60;99.90
28530;DHT22;15737;49.760;6.632;2023-08-01T06:24:45;17.00;99.90
28530;DHT22;15737;49.760;6.632;2023-08-01T06:27:11;16.90;99.90
28530;DHT22;15737;49.760;6.632;2023-08-01T06:29:36;17.30;99.90
28530;DHT22;15737;49.760;6.632;2023-08-01T06:34:43;19.00;99.90
28530;DHT22;15737;49.760;6.632;2023-08-01T06:37:09;18.20;99.90
28530;DHT22;15737;49.760;6.632;2023-08-01T06:39:35;17.60;99.90
28530;DHT22;15737;49.760;6.632;2023-08-01T06:42:01;17.30;99.90
28530;DHT22;15737;49.760;6.632;2023-08-01T06:44:26;18.00;99.90
28530;DHT22;15737;49.760;6.632;2023-08-01T06:46:52;20.40;99.90
28530;DHT22;15737;49.760;6.632;2023-08-01T06:49:17;22.60;99.90
28530;DHT22;15737;49.760;6.632;2023-08-01T06:51:43;24.20;99.90
28530;DHT22;15737;49.760;6.632;2023-08-01T06:54:08;25.60;99.90
28530;DHT22;15737;49.760;6.632;2023-08-01T06:56:43;27.10;99.90
28530;DHT22;15737;49.760;6.632;2023-08-01T06:59:18;26.90;99.90
28530;DHT22;15737;49.760;6.632;2023-08-01T07:01:44;26.70;99.00
28530;DHT22;15737;49.760;6.632;2023-08-01T07:04:13;26.00;98.80
28530;DHT22;15737;49.760;6.632;2023-08-01T07:06:39;26.10;98.40
28530;DHT22;15737;49.760;6.632;2023-08-01T07:09:05;27.00;97.00
28530;DHT22;15737;49.760;6.632;2023-08-01T07:11:31;28.00;95.00
28530;DHT22;15737;49.760;6.632;2023-08-01T07:14:01;28.30;93.50
28530;DHT22;15737;49.760;6.632;2023-08-01T07:16:30;29.10;91.30
28530;DHT22;15737;49.760;6.632;2023-08-01T07:19:04;29.10;90.30
28530;DHT22;15737;49.760;6.632;2023-08-01T07:21:41;29.90;84.50
28530;DHT22;15737;49.760;6.632;2023-08-01T07:26:45;30.50;81.50
28530;DHT22;15737;49.760;6.632;2023-08-01T07:29:10;30.10;81.60
28530;DHT22;15737;49.760;6.632;2023-08-01T07:31:37;26.40;89.60
28530;DHT22;15737;49.760;6.632;2023-08-01T07:34:02;25.70;92.90
28530;DHT22;15737;49.760;6.632;2023-08-01T07:36:28;25.90;92.20
28530;DHT22;15737;49.760;6.632;2023-08-01T07:38:53;26.10;91.60
28530;DHT22;15737;49.760;6.632;2023-08-01T07:41:21;25.10;94.10
28530;DHT22;15737;49.760;6.632;2023-08-01T07:43:47;24.20;96.50
28530;DHT22;15737;49.760;6.632;2023-08-01T07:46:19;25.90;94.50
28530;DHT22;15737;49.760;6.632;2023-08-01T07:49:03;27.90;90.80
28530;DHT22;15737;49.760;6.632;2023-08-01T07:51:45;28.70;84.30
28530;DHT22;15737;49.760;6.632;2023-08-01T07:54:26;25.20;91.90
28530;DHT22;15737;49.760;6.632;2023-08-01T07:59:45;21.40;99.50
28530;DHT22;15737;49.760;6.632;2023-08-01T08:02:24;21.10;99.90
28530;DHT22;15737;49.760;6.632;2023-08-01T08:05:06;21.20;99.90
28530;DHT22;15737;49.760;6.632;2023-08-01T08:07:56;23.60;97.80
28530;DHT22;15737;49.760;6.632;2023-08-01T08:10:52;24.70;95.60
28530;DHT22;15737;49.760;6.632;2023-08-01T08:13:45;23.40;96.80
28530;DHT22;15737;49.760;6.632;2023-08-01T08:16:23;23.80;97.60
28530;DHT22;15737;49.760;6.632;2023-08-01T08:19:05;26.10;92.70
28530;DHT22;15737;49.760;6.632;2023-08-01T08:21:44;25.40;93.20
28530;DHT22;15737;49.760;6.632;2023-08-01T08:24:23;23.10;96.60
28530;DHT22;15737;49.760;6.632;2023-08-01T08:27:07;21.20;99.90
28530;DHT22;15737;49.760;6.632;2023-08-01T08:48:18;22.20;99.90
28530;DHT22;15737;49.760;6.632;2023-08-01T08:50:58;24.60;99.90
28530;DHT22;15737;49.760;6.632;2023-08-01T08:53:38;25.20;98.80
28530;DHT22;15737;49.760;6.632;2023-08-01T08:56:14;25.30;97.80
28530;DHT22;15737;49.760;6.632;2023-08-01T08:58:41;24.80;98.60
28530;DHT22;15737;49.760;6.632;2023-08-01T09:01:06;23.40;98.60
28530;DHT22;15737;49.760;6.632;2023-08-01T09:03:33;22.20;99.90
28530;DHT22;15737;49.760;6.632;2023-08-01T09:06:17;21.80;99.90
28530;DHT22;15737;49.760;6.632;2023-08-01T09:09:17;23.90;99.10
28530;DHT22;15737;49.760;6.632;2023-08-01T09:11:54;24.20;97.40
28530;DHT22;15737;49.760;6.632;2023-08-01T09:14:22;23.30;98.20
28530;DHT22;15737;49.760;6.632;2023-08-01T09:16:48;22.40;99.40
28530;DHT22;15737;49.760;6.632;2023-08-01T09:19:18;21.80;99.90
28530;DHT22;15737;49.760;6.632;2023-08-01T09:21:45;21.20;99.90
28530;DHT22;15737;49.760;6.632;2023-08-01T09:24:11;20.70;99.90
28530;DHT22;15737;49.760;6.632;2023-08-01T09:26:38;20.50;99.90
28530;DHT22;15737;49.760;6.632;2023-08-01T09:29:04;20.60;99.90
28530;DHT22;15737;49.760;6.632;2023-08-01T09:31:34;20.90;99.90
28530;DHT22;15737;49.760;6.632;2023-08-01T09:34:01;21.60;99.90
28530;DHT22;15737;49.760;6.632;2023-08-01T09:36:29;23.00;99.40
28530;DHT22;15737;49.760;6.632;2023-08-01T09:39:02;23.60;97.80
28530;DHT22;15737;49.760;6.632;2023-08-01T09:41:29;23.80;97.50
28530;DHT22;15737;49.760;6.632;2023-08-01T09:43:55;23.70;96.20
28530;DHT22;15737;49.760;6.632;2023-08-01T09:46:21;23.20;96.90
28530;DHT22;15737;49.760;6.632;2023-08-01T09:48:46;24.70;95.20
28530;DHT22;15737;49.760;6.632;2023-08-01T09:51:14;27.00;92.30
28530;DHT22;15737;49.760;6.632;2023-08-01T09:53:51;28.20;86.80
28530;DHT22;15737;49.760;6.632;2023-08-01T09:56:26;28.60;86.20
28530;DHT22;15737;49.760;6.632;2023-08-01T09:58:53;29.50;79.50
28530;DHT22;15737;49.760;6.632;2023-08-01T10:01:21;27.80;82.30
28530;DHT22;15737;49.760;6.632;2023-08-01T10:03:48;27.30;82.30
28530;DHT22;15737;49.760;6.632;2023-08-01T10:06:18;26.10;86.10
28530;DHT22;15737;49.760;6.632;2023-08-01T10:08:45;26.80;84.30
28530;DHT22;15737;49.760;6.632;2023-08-01T10:11:14;27.10;81.50
28530;DHT22;15737;49.760;6.632;2023-08-01T10:13:41;27.10;81.00
28530;DHT22;15737;49.760;6.632;2023-08-01T10:16:07;26.70;80.40
28530;DHT22;15737;49.760;6.632;2023-08-01T10:18:33;26.90;82.80
28530;DHT22;15737;49.760;6.632;2023-08-01T10:21:00;27.20;79.70
28530;DHT22;15737;49.760;6.632;2023-08-01T10:23:26;27.10;81.00
28530;DHT22;15737;49.760;6.632;2023-08-01T10:25:53;26.40;82.40
28530;DHT22;15737;49.760;6.632;2023-08-01T10:28:18;25.20;87.00
28530;DHT22;15737;49.760;6.632;2023-08-01T10:30:44;24.60;90.40
28530;DHT22;15737;49.760;6.632;2023-08-01T10:33:10;25.70;88.30
28530;DHT22;15737;49.760;6.632;2023-08-01T10:35:39;26.00;85.10
28530;DHT22;15737;49.760;6.632;2023-08-01T10:40:38;25.80;85.30
28530;DHT22;15737;49.760;6.632;2023-08-01T10:43:04;25.90;85.30
28530;DHT22;15737;49.760;6.632;2023-08-01T10:45:30;24.90;87.70
28530;DHT22;15737;49.760;6.632;2023-08-01T10:48:10;24.60;89.50
28530;DHT22;15737;49.760;6.632;2023-08-01T10:50:36;25.40;88.80
28530;DHT22;15737;49.760;6.632;2023-08-01T10:53:03;25.70;86.80
28530;DHT22;15737;49.760;6.632;2023-08-01T10:55:38;26.40;85.10
28530;DHT22;15737;49.760;6.632;2023-08-01T10:58:04;26.40;83.30
28530;DHT22;15737;49.760;6.632;2023-08-01T11:00:30;26.90;81.70
28530;DHT22;15737;49.760;6.632;2023-08-01T11:02:55;26.20;82.90
28530;DHT22;15737;49.760;6.632;2023-08-01T11:05:21;25.60;83.10
28530;DHT22;15737;49.760;6.632;2023-08-01T11:07:55;24.60;82.90
28530;DHT22;15737;49.760;6.632;2023-08-01T11:10:21;23.40;85.20
28530;DHT22;15737;49.760;6.632;2023-08-01T11:12:47;23.40;87.70
28530;DHT22;15737;49.760;6.632;2023-08-01T11:15:14;24.10;86.20
28530;DHT22;15737;49.760;6.632;2023-08-01T11:17:42;24.50;84.60
28530;DHT22;15737;49.760;6.632;2023-08-01T11:20:10;24.00;85.80
28530;DHT22;15737;49.760;6.632;2023-08-01T11:22:36;23.30;88.70
28530;DHT22;15737;49.760;6.632;2023-08-01T11:25:03;22.80;90.00
28530;DHT22;15737;49.760;6.632;2023-08-01T11:27:28;22.60;90.80
28530;DHT22;15737;49.760;6.632;2023-08-01T11:29:55;23.60;90.10
28530;DHT22;15737;49.760;6.632;2023-08-01T11:32:21;23.90;88.20
28530;DHT22;15737;49.760;6.632;2023-08-01T11:34:49;24.00;89.30
28530;DHT22;15737;49.760;6.632;2023-08-01T11:37:17;24.50;88.40
28530;DHT22;15737;49.760;6.632;2023-08-01T11:39:43;24.40;88.20
28530;DHT22;15737;49.760;6.632;2023-08-01T11:42:15;25.00;89.00
28530;DHT22;15737;49.760;6.632;2023-08-01T11:44:41;25.20;87.50
28530;DHT22;15737;49.760;6.632;2023-08-01T11:47:14;24.90;87.60
28530;DHT22;15737;49.760;6.632;2023-08-01T11:49:48;24.60;89.60
28530;DHT22;15737;49.760;6.632;2023-08-01T11:54:45;25.60;84.80
28530;DHT22;15737;49.760;6.632;2023-08-01T11:57:10;25.70;84.30
28530;DHT22;15737;49.760;6.632;2023-08-01T11:59:49;25.60;84.40
28530;DHT22;15737;49.760;6.632;2023-08-01T12:02:41;25.50;83.70
28530;DHT22;15737;49.760;6.632;2023-08-01T12:05:09;24.80;83.80
28530;DHT22;15737;49.760;6.632;2023-08-01T12:07:34;24.30;85.40
28530;DHT22;15737;49.760;6.632;2023-08-01T12:10:01;24.30;83.70
28530;DHT22;15737;49.760;6.632;2023-08-01T12:12:27;24.20;84.80
28530;DHT22;15737;49.760;6.632;2023-08-01T12:14:53;23.60;86.60
28530;DHT22;15737;49.760;6.632;2023-08-01T12:17:19;23.60;88.00
28530;DHT22;15737;49.760;6.632;2023-08-01T12:19:45;23.90;87.40
28530;DHT22;15737;49.760;6.632;2023-08-01T12:22:11;24.10;86.20
28530;DHT22;15737;49.760;6.632;2023-08-01T12:24:37;24.20;86.10
28530;DHT22;15737;49.760;6.632;2023-08-01T12:27:05;24.00;87.80
28530;DHT22;15737;49.760;6.632;2023-08-01T12:29:31;24.40;86.90
28530;DHT22;15737;49.760;6.632;2023-08-01T12:31:56;24.70;87.10
28530;DHT22;15737;49.760;6.632;2023-08-01T12:34:22;25.40;84.40
28530;DHT22;15737;49.760;6.632;2023-08-01T12:36:47;25.30;82.60
28530;DHT22;15737;49.760;6.632;2023-08-01T12:39:13;25.00;81.70
28530;DHT22;15737;49.760;6.632;2023-08-01T12:41:38;24.30;84.00
28530;DHT22;15737;49.760;6.632;2023-08-01T12:44:04;24.00;86.10
28530;DHT22;15737;49.760;6.632;2023-08-01T12:46:30;24.10;86.20
28530;DHT22;15737;49.760;6.632;2023-08-01T12:48:56;24.20;85.00
28530;DHT22;15737;49.760;6.632;2023-08-01T12:51:21;23.90;86.20
28530;DHT22;15737;49.760;6.632;2023-08-01T12:53:47;23.70;85.90
28530;DHT22;15737;49.760;6.632;2023-08-01T12:56:12;23.50;87.30
28530;DHT22;15737;49.760;6.632;2023-08-01T12:58:38;23.60;87.90
28530;DHT22;15737;49.760;6.632;2023-08-01T13:01:04;23.30;89.00
28530;DHT22;15737;49.760;6.632;2023-08-01T13:03:29;22.90;90.00
28530;DHT22;15737;49.760;6.632;2023-08-01T13:05:55;22.60;90.60
28530;DHT22;15737;49.760;6.632;2023-08-01T13:08:22;22.20;90.80
28530;DHT22;15737;49.760;6.632;2023-08-01T13:10:48;21.80;91.90
28530;DHT22;15737;49.760;6.632;2023-08-01T13:13:15;21.40;93.00
28530;DHT22;15737;49.760;6.632;2023-08-01T13:15:41;21.20;93.70
28530;DHT22;15737;49.760;6.632;2023-08-01T13:18:07;20.90;95.90
28530;DHT22;15737;49.760;6.632;2023-08-01T13:20:32;20.70;96.90
28530;DHT22;15737;49.760;6.632;2023-08-01T13:22:58;20.60;97.40
28530;DHT22;15737;49.760;6.632;2023-08-01T13:25:24;20.60;96.30
28530;DHT22;15737;49.760;6.632;2023-08-01T13:27:49;20.70;96.60
28530;DHT22;15737;49.760;6.632;2023-08-01T13:30:15;20.90;95.20
28530;DHT22;15737;49.760;6.632;2023-08-01T13:32:43;20.70;96.60
28530;DHT22;15737;49.760;6.632;2023-08-01T13:35:10;20.30;97.70
28530;DHT22;15737;49.760;6.632;2023-08-01T13:37:35;19.30;99.90
28530;DHT22;15737;49.760;6.632;2023-08-01T13:40:01;18.30;99.90
28530;DHT22;15737;49.760;6.632;2023-08-01T13:42:27;17.80;99.90
28530;DHT22;15737;49.760;6.632;2023-08-01T13:44:56;18.00;99.90
28530;DHT22;15737;49.760;6.632;2023-08-01T13:47:21;18.40;99.90
28530;DHT22;15737;49.760;6.632;2023-08-01T13:49:47;18.90;99.90
28530;DHT22;15737;49.760;6.632;2023-08-01T13:52:12;19.10;99.90
28530;DHT22;15737;49.760;6.632;2023-08-01T13:54:38;19.50;99.90
28530;DHT22;15737;49.760;6.632;2023-08-01T13:57:04;19.80;99.90
28530;DHT22;15737;49.760;6.632;2023-08-01T13:59:29;20.00;99.90
28530;DHT22;15737;49.760;6.632;2023-08-01T14:01:56;20.20;99.90
28530;DHT22;15737;49.760;6.632;2023-08-01T14:04:22;20.50;99.90
28530;DHT22;15737;49.760;6.632;2023-08-01T14:06:47;21.00;99.90
28530;DHT22;15737;49.760;6.632;2023-08-01T14:09:13;21.70;99.90
28530;DHT22;15737;49.760;6.632;2023-08-01T14:11:39;22.60;99.90
28530;DHT22;15737;49.760;6.632;2023-08-01T14:14:05;22.70;99.90
28530;DHT22;15737;49.760;6.632;2023-08-01T14:16:30;22.80;99.90
28530;DHT22;15737;49.760;6.632;2023-08-01T14:18:56;23.10;99.60
28530;DHT22;15737;49.760;6.632;2023-08-01T14:21:22;23.60;99.50
28530;DHT22;15737;49.760;6.632;2023-08-01T14:23:48;23.60;98.80
28530;DHT22;15737;49.760;6.632;2023-08-01T14:26:13;23.40;97.90
28530;DHT22;15737;49.760;6.632;2023-08-01T14:28:39;23.10;98.80
28530;DHT22;15737;49.760;6.632;2023-08-01T14:31:05;23.30;98.60
28530;DHT22;15737;49.760;6.632;2023-08-01T14:33:30;23.20;98.00
28530;DHT22;15737;49.760;6.632;2023-08-01T14:35:56;23.00;98.30
28530;DHT22;15737;49.760;6.632;2023-08-01T14:38:22;23.00;97.00
28530;DHT22;15737;49.760;6.632;2023-08-01T14:40:48;22.80;97.10
28530;DHT22;15737;49.760;6.632;2023-08-01T14:43:13;22.50;96.80
28530;DHT22;15737;49.760;6.632;2023-08-01T14:45:40;22.30;97.00
28530;DHT22;15737;49.760;6.632;2023-08-01T14:48:06;22.00;97.50
28530;DHT22;15737;49.760;6.632;2023-08-01T14:50:32;21.60;98.20
28530;DHT22;15737;49.760;6.632;2023-08-01T14:52:57;21.10;98.80
28530;DHT22;15737;49.760;6.632;2023-08-01T14:55:23;20.80;99.50
28530;DHT22;15737;49.760;6.632;2023-08-01T14:57:48;20.60;99.90
28530;DHT22;15737;49.760;6.632;2023-08-01T15:00:15;20.70;99.90
28530;DHT22;15737;49.760;6.632;2023-08-01T15:02:41;20.70;99.90
28530;DHT22;15737;49.760;6.632;2023-08-01T15:05:06;20.80;99.90
28530;DHT22;15737;49.760;6.632;2023-08-01T15:07:32;20.90;99.90
28530;DHT22;15737;49.760;6.632;2023-08-01T15:09:57;20.80;99.90
28530;DHT22;15737;49.760;6.632;2023-08-01T15:12:24;21.00;99.90
28530;DHT22;15737;49.760;6.632;2023-08-01T15:14:55;21.30;99.90
28530;DHT22;15737;49.760;6.632;2023-08-01T15:17:20;21.30;99.90
28530;DHT22;15737;49.760;6.632;2023-08-01T15:19:46;21.20;99.90
28530;DHT22;15737;49.760;6.632;2023-08-01T15:22:14;21.30;99.90
28530;DHT22;15737;49.760;6.632;2023-08-01T15:24:39;21.00;99.90
28530;DHT22;15737;49.760;6.632;2023-08-01T15:27:05;20.40;99.90
28530;DHT22;15737;49.760;6.632;2023-08-01T15:29:31;19.70;99.90
28530;DHT22;15737;49.760;6.632;2023-08-01T15:31:56;19.10;99.90
28530;DHT22;15737;49.760;6.632;2023-08-01T15:34:22;18.50;99.90
28530;DHT22;15737;49.760;6.632;2023-08-01T15:36:47;18.10;99.90
28530;DHT22;15737;49.760;6.632;2023-08-01T15:39:13;18.10;99.90
28530;DHT22;15737;49.760;6.632;2023-08-01T15:41:39;18.20;99.90
28530;DHT22;15737;49.760;6.632;2023-08-01T15:44:04;18.50;99.90
28530;DHT22;15737;49.760;6.632;2023-08-01T15:46:30;18.90;99.90
28530;DHT22;15737;49.760;6.632;2023-08-01T15:48:56;19.00;99.90
28530;DHT22;15737;49.760;6.632;2023-08-01T15:51:22;19.20;99.90
28530;DHT22;15737;49.760;6.632;2023-08-01T15:53:47;19.40;99.90
28530;DHT22;15737;49.760;6.632;2023-08-01T15:56:13;19.70;99.90
28530;DHT22;15737;49.760;6.632;2023-08-01T15:58:39;20.10;99.90
28530;DHT22;15737;49.760;6.632;2023-08-01T16:01:09;20.60;99.90
28530;DHT22;15737;49.760;6.632;2023-08-01T16:03:44;21.10;99.90
28530;DHT22;15737;49.760;6.632;2023-08-01T16:06:10;21.50;99.90
28530;DHT22;15737;49.760;6.632;2023-08-01T16:08:36;21.70;99.90
28530;DHT22;15737;49.760;6.632;2023-08-01T16:11:02;21.80;99.90
28530;DHT22;15737;49.760;6.632;2023-08-01T16:13:28;22.00;99.90